Time;durP1;ratioP1;P1;durP2;ratioP2;P2;SDS_P1;SDS_P2;PMS_P1;PMS_P2;Temp;Humidity;BMP_temperature;BMP_pressure;BME280_temperature;BME280_humidity;BME280_pressure;Samples;Min_cycle;Max_cycle;Signal;HPM_P1;HPM_P2
2023/10/03 00:00:35;;;;;;;38.35;28.17;;;15.20;99.90;;;;;;4917145;28;20058;-74
2023/10/03 00:03:04;;;;;;;38.85;29.13;;;15.20;99.90;;;;;;4936229;28;20035;-74
2023/10/03 00:05:35;;;;;;;40.40;27.73;;;15.10;99.90;;;;;;4932665;28;20055;-74
2023/10/03 00:08:04;;;;;;;38.17;28.13;;;15.30;99.90;;;;;;4918979;28;20039;-75
2023/10/03 00:10:33;;;;;;;40.45;28.73;;;15.40;99.90;;;;;;4919103;28;20043;-74
2023/10/03 00:13:00;;;;;;;40.95;28.50;;;15.40;99.90;;;;;;4934006;28;20055;-75
2023/10/03 00:15:28;;;;;;;39.53;28.85;;;15.30;99.90;;;;;;4919330;28;20126;-74
2023/10/03 00:17:55;;;;;;;35.95;28.25;;;15.40;99.90;;;;;;4936098;28;20043;-75
2023/10/03 00:20:22;;;;;;;35.72;28.35;;;15.40;99.90;;;;;;4918861;28;20043;-74
2023/10/03 00:22:50;;;;;;;35.78;28.25;;;15.30;99.90;;;;;;4929403;28;20110;-74
2023/10/03 00:25:19;;;;;;;33.00;28.13;;;15.20;99.90;;;;;;4935557;28;20050;-74
2023/10/03 00:27:46;;;;;;;36.78;28.65;;;15.00;99.90;;;;;;4924169;28;20062;-75
2023/10/03 00:30:16;;;;;;;38.63;29.08;;;15.00;99.90;;;;;;4924106;28;20050;-76
2023/10/03 00:32:43;;;;;;;36.22;27.52;;;15.00;99.90;;;;;;4922513;28;20035;-75
2023/10/03 00:35:11;;;;;;;39.78;28.85;;;14.90;99.90;;;;;;4921229;28;20051;-76
2023/10/03 00:37:39;;;;;;;36.97;28.35;;;14.90;99.90;;;;;;4921324;28;20051;-76
2023/10/03 00:43:05;;;;;;;39.88;27.38;;;14.80;99.90;;;;;;4921261;28;20046;-76
2023/10/03 00:45:32;;;;;;;38.25;27.40;;;14.90;99.90;;;;;;4935830;28;20051;-76
2023/10/03 00:48:07;;;;;;;42.47;28.60;;;14.90;99.90;;;;;;4927071;28;20387;-75
2023/10/03 00:50:34;;;;;;;;;;;15.00;99.90;;;;;;4937796;28;20564;-75
2023/10/03 00:53:09;;;;;;;35.17;24.85;;;15.00;99.90;;;;;;4926967;28;19927;-76
2023/10/03 00:55:38;;;;;;;34.38;25.65;;;15.20;99.90;;;;;;4921228;28;20154;-75
2023/10/03 01:00:43;;;;;;;37.25;26.33;;;15.30;99.90;;;;;;4937293;28;20043;-75
2023/10/03 01:03:36;;;;;;;38.30;27.17;;;15.30;99.90;;;;;;4940255;28;20134;-76
2023/10/03 01:06:09;;;;;;;39.33;27.13;;;15.20;99.90;;;;;;4939477;28;20290;-75
2023/10/03 01:08:42;;;;;;;36.97;27.23;;;15.00;99.90;;;;;;4920265;28;20047;-80
2023/10/03 01:11:17;;;;;;;43.03;29.08;;;15.00;99.90;;;;;;4938187;28;20134;-75
2023/10/03 01:13:48;;;;;;;;;;;15.00;99.90;;;;;;4926070;28;20046;-78
2023/10/03 01:16:26;;;;;;;34.28;26.58;;;14.90;99.90;;;;;;4924742;28;19972;-75
2023/10/03 01:18:59;;;;;;;35.15;27.42;;;14.80;99.90;;;;;;4940184;28;20481;-75
2023/10/03 01:21:27;;;;;;;33.70;26.83;;;14.70;99.90;;;;;;4933852;28;20047;-75
2023/10/03 01:23:54;;;;;;;39.97;27.10;;;14.70;99.90;;;;;;4939529;28;20039;-76
2023/10/03 01:26:24;;;;;;;37.70;26.40;;;14.60;99.90;;;;;;4937406;28;20101;-75
2023/10/03 01:28:51;;;;;;;36.00;25.77;;;14.60;99.90;;;;;;4940793;28;20066;-76
2023/10/03 01:31:18;;;;;;;35.20;25.98;;;14.50;99.90;;;;;;4922554;28;20051;-73
2023/10/03 01:33:46;;;;;;;38.17;26.67;;;14.50;99.90;;;;;;4936551;28;20043;-74
2023/10/03 01:36:13;;;;;;;36.17;26.75;;;14.50;99.90;;;;;;4940011;28;20186;-75
2023/10/03 01:38:42;;;;;;;36.15;26.48;;;14.60;99.90;;;;;;4938089;28;21690;-74
2023/10/03 01:41:09;;;;;;;35.72;25.05;;;14.60;99.90;;;;;;4937074;28;20134;-74
2023/10/03 01:43:38;;;;;;;34.85;25.38;;;14.70;99.90;;;;;;4916845;28;20043;-74
2023/10/03 01:46:07;;;;;;;35.63;25.52;;;14.80;99.90;;;;;;4939211;28;20125;-74
2023/10/03 01:48:34;;;;;;;36.55;23.85;;;14.70;99.90;;;;;;4936813;28;20047;-74
2023/10/03 01:51:02;;;;;;;39.55;25.33;;;14.80;99.90;;;;;;4919341;28;20038;-74
2023/10/03 01:53:29;;;;;;;34.97;25.13;;;14.90;99.90;;;;;;4934843;28;20155;-74
2023/10/03 01:55:57;;;;;;;40.67;25.88;;;14.90;99.90;;;;;;4920278;28;20047;-74
2023/10/03 01:58:25;;;;;;;39.08;25.88;;;14.90;99.90;;;;;;4934845;28;20047;-74
2023/10/03 02:00:52;;;;;;;35.90;25.88;;;14.80;99.90;;;;;;4921058;28;20051;-74
2023/10/03 02:03:21;;;;;;;35.35;26.33;;;14.70;99.90;;;;;;4924310;28;20613;-74
2023/10/03 02:05:48;;;;;;;36.05;26.70;;;14.70;99.90;;;;;;4938650;28;20065;-74
2023/10/03 02:08:16;;;;;;;36.63;25.83;;;14.70;99.90;;;;;;4922897;28;20142;-74
2023/10/03 02:10:51;;;;;;;44.50;27.30;;;14.70;99.90;;;;;;4920044;28;20568;-74
2023/10/03 02:13:21;;;;;;;39.20;27.38;;;14.70;99.90;;;;;;4936927;28;20047;-74
2023/10/03 02:15:52;;;;;;;38.13;26.60;;;14.70;99.90;;;;;;4920698;28;20062;-74
2023/10/03 02:18:21;;;;;;;36.25;25.00;;;14.70;99.90;;;;;;4919702;28;20051;-74
2023/10/03 02:20:59;;;;;;;38.70;25.48;;;14.80;99.90;;;;;;4919710;28;20039;-74
2023/10/03 02:23:27;;;;;;;38.20;26.70;;;14.90;99.90;;;;;;4921158;28;20043;-74
2023/10/03 02:25:56;;;;;;;38.17;25.67;;;15.00;99.90;;;;;;4919618;28;20074;-74
2023/10/03 02:28:26;;;;;;;39.13;27.33;;;15.20;99.90;;;;;;4935767;28;20043;-74
2023/10/03 02:30:55;;;;;;;41.47;27.15;;;15.20;99.90;;;;;;4936216;28;20047;-74
2023/10/03 02:33:24;;;;;;;35.50;27.75;;;15.20;99.90;;;;;;4936777;28;20170;-74
2023/10/03 02:35:51;;;;;;;33.78;26.63;;;15.20;99.90;;;;;;4937776;28;20242;-75
2023/10/03 02:38:26;;;;;;;36.75;26.63;;;15.10;99.90;;;;;;4939131;28;20146;-74
2023/10/03 02:40:56;;;;;;;40.42;26.45;;;15.10;99.90;;;;;;4919806;28;20047;-75
2023/10/03 02:43:29;;;;;;;38.80;27.77;;;15.00;99.90;;;;;;4920725;28;20051;-74
2023/10/03 02:45:56;;;;;;;39.80;25.85;;;15.00;99.90;;;;;;4923391;28;20051;-74
2023/10/03 02:48:24;;;;;;;37.47;26.95;;;15.00;99.90;;;;;;4920325;28;20043;-72
2023/10/03 02:50:52;;;;;;;33.05;25.98;;;14.90;99.90;;;;;;4940048;28;20062;-74
2023/10/03 02:53:20;;;;;;;37.13;26.15;;;15.00;99.90;;;;;;4921399;28;20047;-74
2023/10/03 02:55:52;;;;;;;39.20;26.88;;;15.00;99.90;;;;;;4921397;28;20051;-75
2023/10/03 02:58:20;;;;;;;37.47;25.35;;;15.10;99.90;;;;;;4935462;28;20105;-74
2023/10/03 03:00:53;;;;;;;38.38;26.23;;;15.00;99.90;;;;;;4935611;28;20452;-74
2023/10/03 03:03:32;;;;;;;42.88;26.85;;;14.90;99.90;;;;;;4918325;28;20058;-74
2023/10/03 03:06:09;;;;;;;35.08;25.33;;;14.80;99.90;;;;;;4922437;28;20049;-74
2023/10/03 03:08:39;;;;;;;39.50;26.35;;;14.80;99.90;;;;;;4921689;28;20047;-74
2023/10/03 03:11:08;;;;;;;38.83;26.30;;;14.60;99.90;;;;;;4914224;28;20087;-74
2023/10/03 03:13:36;;;;;;;36.90;27.33;;;14.60;99.90;;;;;;4919140;28;20139;-74
2023/10/03 03:16:04;;;;;;;40.00;26.50;;;14.60;99.90;;;;;;4936556;28;20106;-74
2023/10/03 03:18:42;;;;;;;39.08;25.50;;;14.80;99.90;;;;;;4920479;28;20049;-73
2023/10/03 03:21:15;;;;;;;43.15;25.58;;;14.80;99.90;;;;;;4933896;28;20130;-74
2023/10/03 03:23:56;;;;;;;37.03;25.00;;;14.80;99.90;;;;;;4920367;28;20043;-74
2023/10/03 03:26:33;;;;;;;34.88;25.20;;;14.80;99.90;;;;;;4919587;28;20633;-74
2023/10/03 03:28:59;;;;;;;39.00;25.92;;;14.70;99.90;;;;;;4920159;28;20058;-74
2023/10/03 03:31:26;;;;;;;37.00;25.52;;;14.70;99.90;;;;;;4916693;28;20534;-74
2023/10/03 03:33:58;;;;;;;40.40;26.40;;;14.70;99.90;;;;;;4939048;28;20553;-74
2023/10/03 03:36:29;;;;;;;37.08;25.92;;;14.70;99.90;;;;;;4933897;28;20634;-74
2023/10/03 03:39:20;;;;;;;39.95;27.10;;;14.70;99.90;;;;;;4937520;28;20036;-74
2023/10/03 03:41:45;;;;;;;33.65;25.27;;;14.80;99.90;;;;;;4918228;28;20619;-74
2023/10/03 03:44:12;;;;;;;37.95;25.95;;;14.80;99.90;;;;;;4917648;28;20055;-74
2023/10/03 03:46:41;;;;;;;37.95;26.40;;;14.90;99.90;;;;;;4934348;28;20043;-74
2023/10/03 03:49:08;;;;;;;37.95;25.17;;;14.90;99.90;;;;;;4918327;28;20052;-74
2023/10/03 03:51:39;;;;;;;38.40;27.05;;;15.00;99.90;;;;;;4932030;28;20568;-74
2023/10/03 03:54:11;;;;;;;35.65;25.60;;;14.90;99.90;;;;;;4934883;28;20038;-74
2023/10/03 03:56:40;;;;;;;37.28;26.00;;;15.00;99.90;;;;;;4915582;28;20750;-74
2023/10/03 03:59:08;;;;;;;37.38;25.17;;;14.90;99.90;;;;;;4920634;28;20070;-74
2023/10/03 04:01:35;;;;;;;35.33;26.75;;;14.80;99.90;;;;;;4915728;28;20675;-73
2023/10/03 04:04:03;;;;;;;41.60;26.83;;;14.60;99.90;;;;;;4919733;28;20071;-74
2023/10/03 04:06:31;;;;;;;40.83;27.25;;;14.70;99.90;;;;;;4934062;28;20553;-74
2023/10/03 04:08:59;;;;;;;41.03;27.00;;;14.80;99.90;;;;;;4919777;28;20047;-74
2023/10/03 04:11:34;;;;;;;35.72;25.02;;;15.00;99.90;;;;;;4932147;28;20043;-75
2023/10/03 04:14:04;;;;;;;36.20;26.25;;;15.40;99.90;;;;;;4936812;28;20047;-75
2023/10/03 04:16:38;;;;;;;39.45;27.00;;;15.60;99.90;;;;;;4918575;28;20049;-74
2023/10/03 04:19:06;;;;;;;34.03;26.65;;;15.60;99.90;;;;;;4923208;28;20050;-75
2023/10/03 04:21:33;;;;;;;36.20;27.88;;;15.70;99.90;;;;;;4934749;28;20051;-74
2023/10/03 04:24:00;;;;;;;37.42;27.52;;;15.80;99.90;;;;;;4935986;28;20383;-75
2023/10/03 04:26:27;;;;;;;40.63;28.33;;;15.80;99.90;;;;;;4913617;28;20045;-75
2023/10/03 04:28:55;;;;;;;35.78;27.52;;;15.70;99.90;;;;;;4934771;28;20429;-74
2023/10/03 04:31:22;;;;;;;37.33;27.52;;;15.80;99.90;;;;;;4906278;28;20047;-74
2023/10/03 04:33:49;;;;;;;33.83;26.85;;;15.70;99.90;;;;;;4932633;28;21584;-74
2023/10/03 04:36:17;;;;;;;36.75;28.08;;;15.80;99.90;;;;;;4915670;28;20043;-74
2023/10/03 04:38:44;;;;;;;38.63;28.05;;;15.70;99.90;;;;;;4934067;28;20051;-74
2023/10/03 04:41:10;;;;;;;38.35;27.23;;;15.80;99.90;;;;;;4918626;28;20058;-74
2023/10/03 04:43:39;;;;;;;36.33;28.17;;;15.70;99.90;;;;;;4932468;28;20043;-74
2023/10/03 04:46:08;;;;;;;35.63;26.38;;;15.80;99.90;;;;;;4933662;28;20696;-74
2023/10/03 04:48:37;;;;;;;36.83;27.02;;;15.70;99.90;;;;;;4921121;28;20051;-74
2023/10/03 04:51:05;;;;;;;38.20;27.00;;;15.60;99.90;;;;;;4918383;29;20139;-76
2023/10/03 04:53:32;;;;;;;41.42;28.02;;;15.70;99.90;;;;;;4925289;28;20693;-74
2023/10/03 04:55:59;;;;;;;35.35;26.15;;;15.60;99.90;;;;;;4937086;28;20539;-74
2023/10/03 04:58:25;;;;;;;36.53;27.58;;;15.60;99.90;;;;;;4935855;28;20105;-74
2023/10/03 05:00:52;;;;;;;38.65;27.75;;;15.60;99.90;;;;;;4932385;28;20046;-74
2023/10/03 05:03:21;;;;;;;40.13;28.77;;;15.60;99.90;;;;;;4937563;28;20047;-74
2023/10/03 05:05:48;;;;;;;38.13;27.65;;;15.80;99.90;;;;;;4918026;28;20609;-74
2023/10/03 05:08:18;;;;;;;38.03;27.23;;;15.80;99.90;;;;;;4946345;28;20078;-74
2023/10/03 05:10:45;;;;;;;39.75;28.23;;;15.80;99.90;;;;;;4935599;28;20047;-74
2023/10/03 05:13:12;;;;;;;36.55;27.85;;;15.80;99.90;;;;;;4920788;28;20050;-74
2023/10/03 05:15:39;;;;;;;35.92;27.17;;;15.90;99.90;;;;;;4920350;28;20047;-74
2023/10/03 05:18:06;;;;;;;36.88;27.63;;;15.90;99.90;;;;;;4939022;28;20481;-74
2023/10/03 05:20:40;;;;;;;39.40;28.95;;;16.00;99.90;;;;;;4934580;28;20151;-74
2023/10/03 05:23:08;;;;;;;36.72;28.30;;;16.00;99.90;;;;;;4940168;28;20506;-74
2023/10/03 05:25:42;;;;;;;36.80;29.15;;;15.90;99.90;;;;;;4936865;28;20516;-75
2023/10/03 05:28:12;;;;;;;41.50;28.98;;;16.00;99.90;;;;;;4937794;28;20130;-74
2023/10/03 05:30:40;;;;;;;34.22;28.58;;;15.90;99.90;;;;;;4938508;28;20114;-74
2023/10/03 05:33:07;;;;;;;40.95;29.13;;;15.90;99.90;;;;;;4922315;28;20113;-74
2023/10/03 05:35:35;;;;;;;38.85;26.88;;;16.00;99.90;;;;;;4940007;28;20114;-74
2023/10/03 05:38:08;;;;;;;36.53;28.45;;;16.00;99.90;;;;;;4937215;28;20106;-74
2023/10/03 05:40:36;;;;;;;37.00;28.30;;;16.00;99.90;;;;;;4935198;28;20047;-73
2023/10/03 05:43:04;;;;;;;38.00;27.85;;;16.10;99.90;;;;;;4917883;28;21624;-74
2023/10/03 05:45:34;;;;;;;34.30;26.50;;;16.10;99.90;;;;;;4922892;28;20181;-74
2023/10/03 05:48:04;;;;;;;38.38;27.27;;;16.10;99.90;;;;;;4926742;28;20123;-74
2023/10/03 05:50:34;;;;;;;41.10;27.73;;;16.10;99.90;;;;;;4920631;28;20059;-74
2023/10/03 05:53:02;;;;;;;39.38;27.48;;;16.20;99.90;;;;;;4917945;28;20382;-74
2023/10/03 05:55:29;;;;;;;40.25;28.88;;;16.20;99.90;;;;;;4938635;28;20945;-74
2023/10/03 05:57:56;;;;;;;35.90;27.63;;;16.20;99.90;;;;;;4933713;28;20083;-74
2023/10/03 06:00:23;;;;;;;37.13;28.33;;;16.30;99.90;;;;;;4924212;28;20047;-75
2023/10/03 06:02:50;;;;;;;34.60;28.38;;;16.20;99.90;;;;;;4920002;28;20039;-74
2023/10/03 06:05:18;;;;;;;38.05;27.92;;;16.30;99.90;;;;;;4922829;28;20047;-74
2023/10/03 06:07:45;;;;;;;37.40;27.85;;;16.20;99.90;;;;;;4917734;28;20123;-74
2023/10/03 06:10:15;;;;;;;33.95;26.92;;;16.10;99.90;;;;;;4920581;29;20486;-75
2023/10/03 06:12:42;;;;;;;37.38;28.90;;;16.20;99.90;;;;;;4934341;28;20537;-74
2023/10/03 06:15:12;;;;;;;32.75;27.05;;;16.30;99.90;;;;;;4945302;28;20566;-74
2023/10/03 06:17:40;;;;;;;33.33;27.40;;;16.40;99.90;;;;;;4923817;28;20110;-76
2023/10/03 06:20:07;;;;;;;32.30;25.58;;;16.40;99.90;;;;;;4911363;28;20043;-76
2023/10/03 06:22:35;;;;;;;33.75;26.70;;;16.50;99.90;;;;;;4919846;28;20051;-74
2023/10/03 06:25:03;;;;;;;31.33;26.50;;;16.60;99.90;;;;;;4921087;28;20516;-75
2023/10/03 06:27:31;;;;;;;33.15;26.48;;;16.70;99.90;;;;;;4918870;28;20133;-75
2023/10/03 06:29:58;;;;;;;29.27;25.40;;;17.00;99.90;;;;;;4921569;28;20576;-76
2023/10/03 06:32:25;;;;;;;27.83;24.83;;;17.50;99.90;;;;;;4923365;28;20047;-76
2023/10/03 06:34:52;;;;;;;28.02;25.20;;;18.00;99.90;;;;;;4918036;28;20032;-75
2023/10/03 06:37:19;;;;;;;29.83;25.05;;;18.70;99.90;;;;;;4935735;28;20039;-74
2023/10/03 06:39:47;;;;;;;29.10;26.00;;;19.10;99.90;;;;;;4931130;28;20046;-75
2023/10/03 06:42:14;;;;;;;27.90;25.00;;;19.40;99.90;;;;;;4932798;28;20047;-76
2023/10/03 06:44:44;;;;;;;28.67;25.38;;;19.70;99.90;;;;;;4922237;28;20055;-75
2023/10/03 06:47:11;;;;;;;28.70;25.65;;;19.80;99.90;;;;;;4943702;28;20047;-76
2023/10/03 06:49:38;;;;;;;28.35;25.65;;;19.90;99.90;;;;;;4938211;28;20113;-76
2023/10/03 06:52:05;;;;;;;29.63;26.05;;;20.00;99.90;;;;;;4937394;28;20122;-76
2023/10/03 06:54:31;;;;;;;29.63;26.55;;;19.90;99.90;;;;;;4924730;28;20052;-74
2023/10/03 06:56:58;;;;;;;27.75;25.02;;;20.00;99.90;;;;;;4936932;28;20046;-75
2023/10/03 06:59:25;;;;;;;28.73;25.85;;;20.10;99.90;;;;;;4918410;28;20055;-75
2023/10/03 07:01:52;;;;;;;29.77;26.90;;;20.10;99.90;;;;;;4918967;28;20047;-75
2023/10/03 07:04:20;;;;;;;29.45;26.35;;;20.10;99.90;;;;;;4918001;29;20055;-74
2023/10/03 07:06:50;;;;;;;28.15;25.45;;;20.10;99.90;;;;;;4902035;28;20525;-74
2023/10/03 07:09:17;;;;;;;28.15;25.15;;;20.20;99.90;;;;;;4938050;28;20055;-74
2023/10/03 07:11:47;;;;;;;30.42;27.13;;;20.20;99.90;;;;;;4933662;28;20146;-74
2023/10/03 07:14:15;;;;;;;29.23;26.33;;;20.30;99.90;;;;;;4905136;29;20103;-75
2023/10/03 07:16:44;;;;;;;30.17;27.00;;;20.20;99.90;;;;;;4917464;28;20043;-74
2023/10/03 07:19:12;;;;;;;29.58;25.98;;;20.20;99.90;;;;;;4934651;28;20131;-75
2023/10/03 07:21:45;;;;;;;29.45;26.38;;;20.20;99.90;;;;;;4931655;28;20039;-74
2023/10/03 07:24:13;;;;;;;30.23;26.42;;;20.20;99.90;;;;;;4935109;28;20047;-75
2023/10/03 07:26:39;;;;;;;30.30;27.25;;;20.20;99.90;;;;;;4933898;28;20450;-74
2023/10/03 07:29:06;;;;;;;31.25;27.92;;;20.20;99.90;;;;;;4937089;28;20046;-76
2023/10/03 07:31:33;;;;;;;29.67;26.42;;;20.10;99.90;;;;;;4918178;28;20060;-76
2023/10/03 07:34:01;;;;;;;29.70;26.63;;;20.10;99.90;;;;;;4934219;28;20709;-75
2023/10/03 07:36:30;;;;;;;29.17;25.92;;;20.10;99.90;;;;;;4936826;28;20305;-76
2023/10/03 07:38:57;;;;;;;29.80;26.73;;;20.10;99.90;;;;;;4933775;28;20031;-76
2023/10/03 07:41:23;;;;;;;29.45;26.35;;;20.00;99.90;;;;;;4934938;28;20047;-75
2023/10/03 07:43:52;;;;;;;31.20;25.73;;;20.00;99.90;;;;;;4920902;28;20043;-75
2023/10/03 07:46:25;;;;;;;28.73;25.85;;;20.00;99.90;;;;;;4931863;28;20052;-76
2023/10/03 07:48:53;;;;;;;29.23;26.35;;;20.00;99.90;;;;;;4919359;28;20047;-75
2023/10/03 07:51:26;;;;;;;30.15;26.90;;;20.00;99.90;;;;;;4935775;28;20075;-75
2023/10/03 07:53:55;;;;;;;34.60;27.05;;;19.90;99.90;;;;;;4937784;28;20532;-77
2023/10/03 07:56:30;;;;;;;29.67;26.45;;;19.90;99.90;;;;;;4922232;29;20129;-78
2023/10/03 07:59:04;;;;;;;28.60;25.55;;;20.00;99.90;;;;;;4918220;28;20047;-77
2023/10/03 08:01:33;;;;;;;31.23;27.45;;;20.00;99.90;;;;;;4935727;28;20147;-77
2023/10/03 08:04:08;;;;;;;30.15;27.10;;;19.90;99.90;;;;;;4921993;28;21340;-77
2023/10/03 08:06:36;;;;;;;29.23;26.27;;;19.90;99.90;;;;;;4933873;28;20600;-77
2023/10/03 08:09:03;;;;;;;28.40;25.58;;;19.90;99.90;;;;;;4919987;28;20047;-77
2023/10/03 08:11:31;;;;;;;29.52;26.45;;;19.90;99.90;;;;;;4932501;28;20454;-77
2023/10/03 08:14:00;;;;;;;29.65;26.60;;;20.00;99.90;;;;;;4934982;28;20051;-78
2023/10/03 08:16:27;;;;;;;29.67;26.85;;;20.00;99.90;;;;;;4935893;28;20054;-77
2023/10/03 08:18:57;;;;;;;29.10;26.23;;;20.10;99.90;;;;;;4918597;28;20047;-77
2023/10/03 08:21:27;;;;;;;29.55;26.48;;;20.00;99.90;;;;;;4924272;29;20047;-77
2023/10/03 08:23:58;;;;;;;29.67;26.77;;;20.00;99.90;;;;;;4935631;28;20118;-77
2023/10/03 08:26:25;;;;;;;30.20;27.17;;;20.00;99.90;;;;;;4935611;28;20137;-77
2023/10/03 08:28:59;;;;;;;31.73;27.70;;;19.90;99.90;;;;;;4917308;28;20047;-77
2023/10/03 08:31:27;;;;;;;31.05;27.85;;;19.90;99.90;;;;;;4934812;28;20126;-76
2023/10/03 08:33:57;;;;;;;29.60;26.60;;;19.90;99.90;;;;;;4933905;28;20047;-76
2023/10/03 08:36:30;;;;;;;30.17;27.02;;;19.90;99.90;;;;;;4921167;29;20047;-75
2023/10/03 08:39:12;;;;;;;30.20;27.05;;;19.80;99.90;;;;;;4917425;28;20043;-77
2023/10/03 08:41:47;;;;;;;29.25;26.35;;;19.80;99.90;;;;;;4934834;28;20074;-77
2023/10/03 08:44:14;;;;;;;28.50;25.55;;;19.80;99.90;;;;;;4937072;28;20059;-78
2023/10/03 08:46:55;;;;;;;30.30;26.02;;;19.80;99.90;;;;;;4941766;28;20726;-76
2023/10/03 08:49:27;;;;;;;27.50;24.65;;;19.80;99.90;;;;;;4937641;28;20111;-75
2023/10/03 08:52:01;;;;;;;28.02;25.48;;;19.80;99.90;;;;;;4936860;28;20142;-75
2023/10/03 08:54:36;;;;;;;32.70;25.85;;;19.80;99.90;;;;;;4923664;28;20635;-76
2023/10/03 08:57:04;;;;;;;27.73;24.98;;;19.80;99.90;;;;;;4923006;28;20277;-75
2023/10/03 08:59:32;;;;;;;27.67;24.92;;;19.80;99.90;;;;;;4922314;28;20040;-75
2023/10/03 09:02:08;;;;;;;28.52;25.85;;;19.80;99.90;;;;;;4936175;28;20122;-75
2023/10/03 09:04:39;;;;;;;26.33;24.02;;;19.90;99.90;;;;;;4941259;28;20055;-76
2023/10/03 09:07:09;;;;;;;27.55;24.95;;;19.80;99.90;;;;;;4919272;28;20462;-76
2023/10/03 09:09:41;;;;;;;29.05;26.00;;;19.80;99.90;;;;;;4925938;28;20625;-76
2023/10/03 09:12:09;;;;;;;27.38;24.48;;;19.80;99.90;;;;;;4923674;28;20950;-76
2023/10/03 09:14:39;;;;;;;26.98;24.50;;;19.90;99.90;;;;;;4932041;28;20563;-76
2023/10/03 09:17:06;;;;;;;28.17;25.55;;;20.00;99.90;;;;;;4943311;28;20058;-75
2023/10/03 09:19:44;;;;;;;27.67;24.92;;;19.90;99.90;;;;;;4941872;28;20047;-75
2023/10/03 09:22:15;;;;;;;29.33;24.73;;;19.90;99.90;;;;;;4921656;29;20142;-78
2023/10/03 09:24:46;;;;;;;25.35;22.85;;;19.90;99.90;;;;;;4908602;28;20174;-76
2023/10/03 09:27:20;;;;;;;25.17;22.52;;;19.70;99.90;;;;;;4924207;29;20039;-75
2023/10/03 09:29:49;;;;;;;26.00;23.37;;;19.50;99.90;;;;;;4918927;28;20040;-76
2023/10/03 09:32:19;;;;;;;24.48;22.23;;;19.40;99.90;;;;;;4938979;28;20438;-75
2023/10/03 09:34:58;;;;;;;26.15;22.98;;;19.20;99.90;;;;;;4936844;28;20036;-75
2023/10/03 09:37:28;;;;;;;24.58;21.50;;;19.10;99.90;;;;;;4935018;28;20466;-76
2023/10/03 09:40:01;;;;;;;24.27;21.92;;;18.90;99.90;;;;;;4924337;28;20047;-76
2023/10/03 09:42:32;;;;;;;24.38;22.30;;;18.90;99.90;;;;;;4935433;28;20047;-76
2023/10/03 09:44:59;;;;;;;24.70;22.55;;;18.90;99.90;;;;;;4918405;28;20635;-76
2023/10/03 09:47:34;;;;;;;23.05;21.23;;;18.90;99.90;;;;;;4921081;29;20053;-75
2023/10/03 09:50:08;;;;;;;23.95;21.67;;;19.00;99.90;;;;;;4918597;28;20074;-76
2023/10/03 09:52:37;;;;;;;24.58;22.27;;;19.10;99.90;;;;;;4934210;28;20051;-76
2023/10/03 09:55:26;;;;;;;25.23;22.77;;;19.20;99.90;;;;;;4936668;28;20114;-77
2023/10/03 09:57:59;;;;;;;23.77;21.45;;;19.30;99.90;;;;;;4934536;28;20048;-76
2023/10/03 10:03:37;;;;;;;25.65;22.25;;;19.60;99.90;;;;;;4877379;29;20664;-75
2023/10/03 10:06:13;;;;;;;24.67;22.10;;;19.50;99.90;;;;;;4843945;29;20053;-76
2023/10/03 10:08:59;;;;;;;24.60;22.30;;;19.50;99.90;;;;;;4895669;29;20538;-76
2023/10/03 10:11:27;;;;;;;23.70;21.40;;;19.40;99.90;;;;;;4924865;28;20099;-76
2023/10/03 10:14:09;;;;;;;24.00;21.80;;;19.30;99.90;;;;;;4918751;28;20509;-76
2023/10/03 10:17:05;;;;;;;23.80;21.60;;;19.20;99.90;;;;;;4936191;28;20050;-75
2023/10/03 10:20:11;;;;;;;23.98;21.90;;;19.20;99.90;;;;;;4911498;29;20066;-76
2023/10/03 10:23:04;;;;;;;23.15;21.23;;;19.20;99.90;;;;;;4912713;28;20044;-76
2023/10/03 10:25:37;;;;;;;22.95;21.10;;;19.20;99.90;;;;;;4935425;28;20047;-76
2023/10/03 10:28:06;;;;;;;22.90;21.03;;;19.20;99.90;;;;;;4937452;28;20047;-76
2023/10/03 10:30:40;;;;;;;22.75;20.98;;;19.20;99.90;;;;;;4927327;29;20283;-76
2023/10/03 10:33:15;;;;;;;21.83;20.33;;;19.30;99.90;;;;;;4916782;28;20048;-76
2023/10/03 10:35:59;;;;;;;22.30;20.42;;;19.30;99.90;;;;;;4933931;28;20134;-75
2023/10/03 10:38:32;;;;;;;22.42;20.73;;;19.40;99.90;;;;;;4924182;29;20138;-77
2023/10/03 10:41:11;;;;;;;22.02;20.00;;;19.30;99.90;;;;;;4931486;28;20813;-76
2023/10/03 10:44:06;;;;;;;20.83;18.92;;;19.40;99.90;;;;;;4933662;28;20659;-76
2023/10/03 10:46:45;;;;;;;21.75;19.83;;;19.40;99.90;;;;;;4933854;28;20046;-76
2023/10/03 10:49:30;;;;;;;20.95;19.17;;;19.50;99.90;;;;;;4922084;28;20047;-76
2023/10/03 10:51:59;;;;;;;20.70;19.15;;;19.70;99.90;;;;;;4929374;28;20051;-75
2023/10/03 10:54:27;;;;;;;20.98;19.30;;;19.70;99.90;;;;;;4907335;28;20328;-76
2023/10/03 10:57:19;;;;;;;22.00;20.25;;;19.80;99.90;;;;;;4932574;28;20046;-75
2023/10/03 10:59:46;;;;;;;21.98;19.65;;;20.00;99.90;;;;;;4931233;28;20040;-76
2023/10/03 11:02:17;;;;;;;21.40;19.48;;;20.10;99.90;;;;;;4918301;28;20083;-76
2023/10/03 11:04:51;;;;;;;20.67;19.05;;;20.10;99.90;;;;;;4917970;28;20077;-76
2023/10/03 11:07:23;;;;;;;20.58;19.25;;;20.00;99.90;;;;;;4919440;29;20086;-76
2023/10/03 11:09:55;;;;;;;21.50;19.55;;;19.90;99.90;;;;;;4934818;28;20066;-76
2023/10/03 11:12:27;;;;;;;21.05;19.30;;;19.80;99.90;;;;;;4929896;28;20561;-76
2023/10/03 11:14:55;;;;;;;21.10;19.60;;;19.80;99.90;;;;;;4915143;28;20054;-75
2023/10/03 11:17:23;;;;;;;21.02;19.45;;;19.90;99.90;;;;;;4920700;29;20050;-76
2023/10/03 11:19:52;;;;;;;20.85;19.27;;;19.90;99.90;;;;;;4922873;28;20035;-76
2023/10/03 11:22:19;;;;;;;20.85;19.45;;;19.90;99.90;;;;;;4919828;29;20077;-76
2023/10/03 11:24:46;;;;;;;20.27;18.98;;;19.90;99.90;;;;;;4933445;28;20039;-76
2023/10/03 11:27:28;;;;;;;21.25;19.65;;;19.80;99.90;;;;;;4934861;28;20058;-76
2023/10/03 11:29:55;;;;;;;21.48;19.85;;;19.80;99.90;;;;;;4932412;28;20490;-76
2023/10/03 11:32:30;;;;;;;21.50;19.98;;;19.90;99.90;;;;;;4918390;29;20147;-76
2023/10/03 11:34:58;;;;;;;22.35;20.67;;;20.00;99.90;;;;;;4916578;28;20161;-76
2023/10/03 11:37:36;;;;;;;22.77;20.83;;;20.00;99.90;;;;;;4917112;29;20047;-76
2023/10/03 11:40:27;;;;;;;22.23;20.33;;;20.00;99.90;;;;;;4916521;28;20139;-74
2023/10/03 11:42:59;;;;;;;21.77;20.05;;;20.00;99.90;;;;;;4915890;28;20045;-75
2023/10/03 11:45:29;;;;;;;21.90;20.33;;;20.00;99.90;;;;;;4925664;29;20051;-75
2023/10/03 11:48:22;;;;;;;21.63;19.92;;;19.90;99.90;;;;;;4933636;28;20058;-75
2023/10/03 11:50:49;;;;;;;22.60;20.52;;;19.70;99.90;;;;;;4915308;28;20118;-75
2023/10/03 11:53:18;;;;;;;23.15;21.17;;;19.60;99.90;;;;;;4934686;28;20043;-76
2023/10/03 11:55:45;;;;;;;22.33;20.70;;;19.60;99.90;;;;;;4932985;28;20047;-76
2023/10/03 11:58:12;;;;;;;21.50;20.02;;;19.50;99.90;;;;;;4934366;28;20051;-75
2023/10/03 12:00:44;;;;;;;21.30;19.52;;;19.30;99.90;;;;;;4934420;28;20059;-76
2023/10/03 12:03:11;;;;;;;21.70;19.92;;;19.30;99.90;;;;;;4916967;28;20047;-75
2023/10/03 12:05:42;;;;;;;21.95;20.23;;;19.30;99.90;;;;;;4917303;29;20058;-75
2023/10/03 12:08:12;;;;;;;21.27;19.67;;;19.20;99.90;;;;;;4921762;28;20047;-75
2023/10/03 12:10:41;;;;;;;21.77;19.88;;;19.10;99.90;;;;;;4927486;28;20114;-76
2023/10/03 12:13:09;;;;;;;23.05;18.70;;;18.90;99.90;;;;;;4913909;28;20414;-73
2023/10/03 12:15:42;;;;;;;18.15;15.25;;;18.10;99.90;;;;;;4934788;28;20145;-72
2023/10/03 12:18:10;;;;;;;28.92;16.25;;;17.40;99.90;;;;;;4931054;28;20052;-72
2023/10/03 12:20:38;;;;;;;15.43;13.80;;;17.00;99.90;;;;;;4922141;29;20131;-73
2023/10/03 12:23:06;;;;;;;29.70;16.15;;;16.70;99.90;;;;;;4915869;28;20563;-73
2023/10/03 12:25:33;;;;;;;24.88;19.13;;;16.40;99.90;;;;;;4923885;29;20043;-73
2023/10/03 12:28:00;;;;;;;24.42;17.92;;;16.30;99.90;;;;;;4929643;28;20055;-74
2023/10/03 12:30:27;;;;;;;30.77;20.42;;;16.30;99.90;;;;;;4936548;28;20462;-75
2023/10/03 12:32:54;;;;;;;37.22;24.42;;;16.20;99.90;;;;;;4935760;28;20051;-74
2023/10/03 12:35:24;;;;;;;32.42;24.20;;;16.20;99.90;;;;;;4916612;28;20106;-74
2023/10/03 12:37:51;;;;;;;34.90;24.45;;;16.20;99.90;;;;;;4922112;28;20039;-73
2023/10/03 12:40:21;;;;;;;33.05;25.90;;;16.20;99.90;;;;;;4934988;28;20048;-73
2023/10/03 12:42:51;;;;;;;32.70;24.88;;;16.10;99.90;;;;;;4916540;28;20126;-74
2023/10/03 12:45:22;;;;;;;36.28;26.85;;;15.90;99.90;;;;;;4934955;28;20077;-75
2023/10/03 12:47:54;;;;;;;40.38;30.70;;;15.80;99.90;;;;;;4919461;28;20086;-73
2023/10/03 12:50:23;;;;;;;45.10;31.20;;;15.80;99.90;;;;;;4930251;28;20043;-74
2023/10/03 12:52:50;;;;;;;41.83;30.25;;;15.80;99.90;;;;;;4919482;28;20588;-75